createdAt,value
2022-09-20T00:01:04.818Z,1.85
2022-09-20T00:03:31.954Z,1.60
2022-09-20T00:06:01.914Z,1.80
2022-09-20T00:08:30.775Z,1.85
2022-09-20T00:10:59.055Z,1.55
2022-09-20T00:13:26.171Z,1.77
2022-09-20T00:15:53.294Z,1.60
2022-09-20T00:18:20.423Z,1.83
2022-09-20T00:20:50.077Z,1.80
2022-09-20T00:23:18.214Z,1.60
2022-09-20T00:25:55.159Z,1.50
2022-09-20T00:28:22.481Z,1.95
2022-09-20T00:30:49.579Z,1.77
2022-09-20T00:33:16.661Z,1.70
2022-09-20T00:35:43.787Z,1.38
2022-09-20T00:38:11.259Z,1.40
2022-09-20T00:40:38.367Z,1.42
2022-09-20T00:43:06.916Z,1.55
2022-09-20T00:45:34.271Z,1.60
2022-09-20T00:48:04.964Z,1.58
2022-09-20T00:50:36.819Z,1.50
2022-09-20T00:53:09.882Z,1.60
2022-09-20T00:55:40.909Z,1.60
2022-09-20T00:58:09.868Z,1.70
2022-09-20T01:00:37.980Z,1.42
2022-09-20T01:03:13.311Z,1.60
2022-09-20T01:05:41.903Z,1.50
2022-09-20T01:08:10.488Z,1.42
2022-09-20T01:10:38.263Z,1.50
2022-09-20T01:13:05.385Z,1.45
2022-09-20T01:15:37.246Z,1.60
2022-09-20T01:18:06.380Z,1.40
2022-09-20T01:20:36.289Z,1.40
2022-09-20T01:23:23.677Z,1.20
2022-09-20T01:26:14.546Z,1.60
2022-09-20T01:28:46.091Z,1.15
2022-09-20T01:31:18.586Z,1.35
2022-09-20T01:33:49.691Z,1.40
2022-09-20T01:36:23.227Z,1.30
2022-09-20T01:39:05.613Z,1.20
2022-09-20T01:41:37.383Z,1.20
2022-09-20T01:44:12.927Z,1.20
2022-09-20T01:46:42.989Z,1.48
2022-09-20T01:49:25.109Z,1.13
2022-09-20T01:52:25.304Z,1.15
2022-09-20T01:55:35.805Z,1.20
2022-09-20T01:58:19.631Z,1.30
2022-09-20T02:01:13.938Z,1.10
2022-09-20T02:03:53.694Z,1.15
2022-09-20T02:06:36.658Z,1.20
2022-09-20T02:09:29.473Z,1.20
2022-09-20T02:12:12.620Z,1.50
2022-09-20T02:14:51.220Z,1.05
2022-09-20T02:17:25.969Z,1.23
2022-09-20T02:20:15.644Z,1.30
2022-09-20T02:22:59.042Z,1.40
2022-09-20T02:25:57.731Z,1.30
2022-09-20T02:28:36.887Z,1.20
2022-09-20T02:31:13.046Z,1.40
2022-09-20T02:34:03.661Z,1.00
2022-09-20T02:36:41.601Z,1.17
2022-09-20T02:39:15.124Z,1.20
2022-09-20T02:41:55.479Z,1.10
2022-09-20T02:44:34.924Z,1.10
2022-09-20T02:47:12.307Z,1.05
2022-09-20T02:49:53.896Z,1.05
2022-09-20T02:52:30.585Z,1.00
2022-09-20T02:55:05.850Z,1.23
2022-09-20T02:57:43.563Z,1.10
2022-09-20T03:00:16.491Z,1.00
2022-09-20T03:02:53.679Z,1.35
2022-09-20T03:05:27.602Z,1.10
2022-09-20T03:08:08.525Z,1.15
2022-09-20T03:10:41.920Z,0.90
2022-09-20T03:13:18.220Z,1.10
2022-09-20T03:15:57.304Z,0.93
2022-09-20T03:18:34.319Z,1.10
2022-09-20T03:21:12.717Z,1.00
2022-09-20T03:23:50.125Z,1.08
2022-09-20T03:26:30.354Z,1.20
2022-09-20T03:29:04.211Z,1.25
2022-09-20T03:31:49.321Z,0.80
2022-09-20T03:34:34.374Z,1.15
2022-09-20T03:37:18.098Z,1.20
2022-09-20T03:40:06.291Z,1.00
2022-09-20T03:42:37.030Z,1.00
2022-09-20T03:45:31.807Z,0.90
2022-09-20T03:50:55.319Z,1.00
2022-09-20T03:56:28.486Z,1.10
2022-09-20T03:59:14.271Z,1.10
2022-09-20T04:02:00.235Z,1.17
2022-09-20T04:04:34.642Z,0.90
2022-09-20T04:07:12.759Z,0.95
2022-09-20T04:10:11.573Z,1.10
2022-09-20T04:12:47.890Z,0.90
2022-09-20T04:15:26.087Z,1.10
2022-09-20T04:17:59.729Z,1.00
2022-09-20T04:20:36.254Z,1.30
2022-09-20T04:23:15.303Z,0.95
2022-09-20T04:25:47.217Z,0.95
2022-09-20T04:28:23.467Z,1.00
2022-09-20T04:30:54.641Z,1.10
2022-09-20T04:33:27.024Z,1.10
2022-09-20T04:36:03.670Z,0.80
2022-09-20T04:38:31.475Z,1.00
2022-09-20T04:41:46.196Z,0.98
2022-09-20T04:44:50.324Z,1.02
2022-09-20T04:47:46.969Z,0.80
2022-09-20T04:51:03.170Z,1.08
2022-09-20T04:53:46.777Z,0.90
2022-09-20T04:56:21.395Z,1.00
2022-09-20T04:58:57.040Z,1.00
2022-09-20T05:02:08.506Z,1.05
2022-09-20T05:05:13.163Z,1.05
2022-09-20T05:08:31.970Z,0.93
2022-09-20T05:11:16.608Z,1.00
2022-09-20T05:14:03.196Z,1.00
2022-09-20T05:16:50.056Z,1.00
2022-09-20T05:19:31.479Z,0.65
2022-09-20T05:22:41.235Z,0.75
2022-09-20T05:25:39.642Z,0.90
2022-09-20T05:28:13.610Z,0.95
2022-09-20T05:30:46.481Z,0.82
2022-09-20T05:33:23.174Z,0.80
2022-09-20T05:36:04.509Z,1.05
2022-09-20T05:38:45.623Z,0.90
2022-09-20T05:41:22.255Z,0.88
2022-09-20T05:43:58.867Z,1.00
2022-09-20T05:46:40.869Z,1.15
2022-09-20T05:49:19.839Z,0.80
2022-09-20T05:52:15.217Z,0.80
2022-09-20T05:55:07.615Z,1.10
2022-09-20T05:57:53.273Z,0.80
2022-09-20T06:00:22.214Z,1.00
2022-09-20T06:02:55.407Z,1.00
2022-09-20T06:05:33.376Z,0.80
2022-09-20T06:08:18.567Z,1.10
2022-09-20T06:11:17.334Z,0.95
2022-09-20T06:14:15.022Z,1.08
2022-09-20T06:16:51.735Z,0.90
2022-09-20T06:19:29.004Z,0.85
2022-09-20T06:22:03.593Z,0.80
2022-09-20T06:24:39.015Z,0.95
2022-09-20T06:27:10.625Z,1.00
2022-09-20T06:29:41.860Z,0.90
2022-09-20T06:32:09.041Z,0.70
2022-09-20T06:34:36.640Z,0.85
2022-09-20T06:37:14.094Z,0.90
2022-09-20T06:39:49.631Z,0.70
2022-09-20T06:42:16.747Z,1.00
2022-09-20T06:44:43.819Z,1.05
2022-09-20T06:47:11.490Z,0.88
2022-09-20T06:49:38.819Z,1.00
2022-09-20T06:52:06.651Z,0.98
2022-09-20T06:54:34.331Z,1.00
2022-09-20T06:57:04.742Z,0.98
2022-09-20T06:59:31.931Z,0.95
2022-09-20T07:01:59.064Z,0.98
2022-09-20T07:04:26.193Z,0.98
2022-09-20T07:06:59.319Z,0.95
2022-09-20T07:09:26.400Z,0.80
2022-09-20T07:11:53.466Z,0.82
2022-09-20T07:14:22.476Z,0.85
2022-09-20T07:16:49.582Z,1.05
2022-09-20T07:19:16.665Z,0.95
2022-09-20T07:21:43.766Z,0.75
2022-09-20T07:24:10.906Z,0.98
2022-09-20T07:26:37.992Z,0.90
2022-09-20T07:29:05.215Z,0.82
2022-09-20T07:31:33.746Z,0.85
2022-09-20T07:34:00.876Z,0.90
2022-09-20T07:36:27.993Z,0.90
2022-09-20T07:38:55.264Z,0.82
2022-09-20T07:41:22.395Z,1.00
2022-09-20T07:43:49.762Z,0.90
2022-09-20T07:46:16.838Z,0.95
2022-09-20T07:48:45.267Z,0.90
2022-09-20T07:51:14.009Z,0.70
2022-09-20T07:53:41.655Z,0.90
2022-09-20T07:56:11.711Z,0.80
2022-09-20T07:58:39.315Z,0.77
2022-09-20T08:01:08.123Z,0.70
2022-09-20T08:03:36.090Z,0.80
2022-09-20T08:06:07.238Z,0.80
2022-09-20T08:08:35.301Z,0.60
2022-09-20T08:11:03.947Z,0.80
2022-09-20T08:16:20.000Z,0.93
2022-09-20T08:18:48.472Z,0.80
2022-09-20T08:21:17.594Z,0.85
2022-09-20T08:23:46.342Z,0.90
2022-09-20T08:26:14.986Z,0.80
2022-09-20T08:28:42.800Z,0.60
2022-09-20T08:31:12.813Z,0.85
2022-09-20T08:33:41.077Z,0.85
2022-09-20T08:36:12.249Z,0.70
2022-09-20T08:41:44.022Z,0.77
2022-09-20T08:44:16.859Z,1.00
2022-09-20T08:46:50.458Z,0.85
2022-09-20T08:49:26.533Z,1.00
2022-09-20T08:51:54.592Z,0.90
2022-09-20T08:54:24.596Z,1.20
2022-09-20T08:56:53.375Z,1.45
2022-09-20T08:59:23.573Z,1.35
2022-09-20T09:01:55.598Z,1.33
2022-09-20T09:04:25.469Z,1.25
2022-09-20T09:06:52.987Z,1.50
2022-09-20T09:09:22.966Z,1.50
2022-09-20T09:11:52.946Z,1.27
2022-09-20T09:14:26.011Z,1.70
2022-09-20T09:16:53.244Z,1.50
2022-09-20T09:19:33.330Z,1.20
2022-09-20T09:22:03.456Z,1.55
2022-09-20T09:24:30.571Z,1.42
2022-09-20T09:27:08.182Z,1.40
2022-09-20T09:29:35.667Z,1.20
2022-09-20T09:32:20.996Z,1.45
2022-09-20T09:34:48.133Z,1.33
2022-09-20T09:37:29.017Z,1.40
2022-09-20T09:40:13.143Z,1.35
2022-09-20T09:42:50.640Z,1.30
2022-09-20T09:45:27.173Z,1.25
2022-09-20T09:47:55.255Z,1.70
2022-09-20T09:50:24.947Z,1.38
2022-09-20T09:53:00.329Z,1.50
2022-09-20T09:55:37.855Z,1.52
2022-09-20T09:58:17.848Z,1.33
2022-09-20T10:00:46.073Z,1.70
2022-09-20T10:03:42.313Z,1.58
2022-09-20T10:06:18.431Z,1.90
2022-09-20T10:09:03.206Z,1.48
2022-09-20T10:11:42.877Z,1.40
2022-09-20T10:14:27.196Z,1.20
2022-09-20T10:17:16.916Z,1.38
2022-09-20T10:19:56.862Z,1.25
2022-09-20T10:22:35.299Z,1.30
2022-09-20T10:25:16.355Z,1.20
2022-09-20T10:27:56.298Z,1.20
2022-09-20T10:30:31.443Z,1.00
2022-09-20T10:33:17.479Z,1.48
2022-09-20T10:35:55.254Z,1.30
2022-09-20T10:38:27.687Z,1.25
2022-09-20T10:41:10.506Z,1.20
2022-09-20T10:44:01.425Z,1.17
2022-09-20T10:46:52.032Z,0.83
2022-09-20T10:49:26.503Z,1.15
2022-09-20T10:52:15.315Z,1.15
2022-09-20T10:55:00.042Z,1.10
2022-09-20T10:57:50.073Z,1.23
2022-09-20T11:00:23.023Z,1.02
2022-09-20T11:03:11.083Z,1.17
2022-09-20T11:05:46.505Z,1.20
2022-09-20T11:08:16.903Z,0.80
2022-09-20T11:10:48.801Z,1.30
2022-09-20T11:13:24.912Z,1.10
2022-09-20T11:15:58.486Z,1.00
2022-09-20T11:18:33.326Z,1.00
2022-09-20T11:21:06.209Z,0.90
2022-09-20T11:23:42.747Z,0.90
2022-09-20T11:26:13.045Z,1.00
2022-09-20T11:28:44.993Z,0.98
2022-09-20T11:31:19.562Z,1.10
2022-09-20T11:33:53.843Z,0.90
2022-09-20T11:36:27.014Z,1.20
2022-09-20T11:38:58.903Z,0.82
2022-09-20T11:41:29.976Z,1.00
2022-09-20T11:44:02.316Z,1.00
2022-09-20T11:46:33.495Z,1.10
2022-09-20T11:49:06.297Z,0.90
2022-09-20T11:51:53.427Z,1.00
2022-09-20T11:54:34.771Z,0.80
2022-09-20T11:57:02.510Z,1.13
2022-09-20T11:59:34.657Z,0.90
2022-09-20T12:02:05.165Z,1.10
2022-09-20T12:04:36.537Z,0.90
2022-09-20T12:07:10.622Z,1.10
2022-09-20T12:09:42.708Z,0.80
2022-09-20T12:12:24.572Z,0.90
2022-09-20T12:14:56.441Z,0.80
2022-09-20T12:18:09.411Z,0.90
2022-09-20T12:20:59.893Z,1.10
2022-09-20T12:24:16.885Z,0.95
2022-09-20T12:26:48.463Z,1.00
2022-09-20T12:29:52.009Z,0.80
2022-09-20T12:32:47.623Z,1.00
2022-09-20T12:35:57.679Z,1.05
2022-09-20T12:38:57.858Z,0.77
2022-09-20T12:41:28.681Z,0.98
2022-09-20T12:44:06.411Z,0.80
2022-09-20T12:46:42.043Z,0.68
2022-09-20T12:49:44.635Z,0.70
2022-09-20T12:52:47.349Z,0.75
2022-09-20T12:55:43.216Z,0.57
2022-09-20T12:58:33.503Z,0.70
2022-09-20T13:01:30.362Z,0.75
2022-09-20T13:05:01.230Z,0.80
2022-09-20T13:08:01.766Z,0.80
2022-09-20T13:10:41.151Z,0.80
2022-09-20T13:13:39.547Z,1.38
2022-09-20T13:16:07.338Z,0.73
2022-09-20T13:18:36.214Z,0.90
2022-09-20T13:21:06.542Z,0.80
2022-09-20T13:23:45.261Z,0.73
2022-09-20T13:26:15.490Z,0.60
2022-09-20T13:28:49.388Z,0.73
2022-09-20T13:31:30.450Z,0.80
2022-09-20T13:34:13.525Z,0.68
2022-09-20T13:36:41.737Z,0.57
2022-09-20T13:39:08.874Z,0.63
2022-09-20T13:41:37.475Z,0.70
2022-09-20T13:44:04.852Z,0.77
2022-09-20T13:46:33.138Z,0.70
2022-09-20T13:49:14.122Z,0.68
2022-09-20T13:51:41.380Z,0.70
2022-09-20T13:54:20.426Z,0.60
2022-09-20T13:56:50.431Z,0.77
2022-09-20T13:59:19.369Z,0.70
2022-09-20T14:01:50.433Z,0.50
2022-09-20T14:04:21.588Z,0.68
2022-09-20T14:06:52.168Z,0.50
2022-09-20T14:09:25.252Z,1.05
2022-09-20T14:11:54.559Z,0.77
2022-09-20T14:14:23.304Z,0.65
2022-09-20T14:16:51.946Z,0.60
2022-09-20T14:19:21.049Z,0.63
2022-09-20T14:21:49.217Z,0.70
2022-09-20T14:24:31.914Z,0.55
2022-09-20T14:27:21.637Z,0.82
2022-09-20T14:29:50.754Z,0.70
2022-09-20T14:32:39.446Z,0.60
2022-09-20T14:35:15.217Z,0.60
2022-09-20T14:37:44.527Z,0.65
2022-09-20T14:40:24.011Z,0.52
2022-09-20T14:42:56.457Z,0.70
2022-09-20T14:45:27.625Z,0.80
2022-09-20T14:48:00.943Z,0.50
2022-09-20T14:50:30.496Z,0.60
2022-09-20T14:53:24.614Z,1.00
2022-09-20T14:55:59.980Z,0.40
2022-09-20T14:58:28.454Z,0.70
2022-09-20T15:00:58.228Z,0.65
2022-09-20T15:03:28.551Z,0.57
2022-09-20T15:05:55.714Z,0.60
2022-09-20T15:08:23.359Z,0.57
2022-09-20T15:10:50.514Z,0.60
2022-09-20T15:13:18.087Z,0.80
2022-09-20T15:15:50.251Z,0.75
2022-09-20T15:18:20.927Z,0.70
2022-09-20T15:20:48.789Z,0.50
2022-09-20T15:23:15.936Z,0.50
2022-09-20T15:25:43.016Z,0.60
2022-09-20T15:28:13.718Z,0.80
2022-09-20T15:30:40.921Z,0.57
2022-09-20T15:33:09.827Z,0.70
2022-09-20T15:35:37.179Z,0.60
2022-09-20T15:38:04.383Z,0.40
2022-09-20T15:40:31.670Z,0.50
2022-09-20T15:42:58.848Z,0.60
2022-09-20T15:45:26.642Z,0.40
2022-09-20T15:47:54.306Z,0.50
2022-09-20T15:50:22.736Z,0.43
2022-09-20T15:52:50.037Z,0.60
2022-09-20T15:55:17.802Z,0.55
2022-09-20T15:57:45.654Z,0.80
2022-09-20T16:00:13.362Z,0.52
2022-09-20T16:02:40.449Z,0.75
2022-09-20T16:05:08.167Z,0.60
2022-09-20T16:07:36.909Z,0.60
2022-09-20T16:10:04.411Z,0.50
2022-09-20T16:12:31.480Z,0.55
2022-09-20T16:14:58.556Z,0.70
2022-09-20T16:17:25.642Z,0.70
2022-09-20T16:19:52.714Z,0.60
2022-09-20T16:22:19.815Z,0.60
2022-09-20T16:24:48.230Z,0.40
2022-09-20T16:27:15.324Z,0.60
2022-09-20T16:29:42.422Z,0.70
2022-09-20T16:32:09.487Z,0.88
2022-09-20T16:34:36.591Z,0.70
2022-09-20T16:37:05.705Z,0.60
2022-09-20T16:39:32.819Z,0.70
2022-09-20T16:42:03.106Z,0.70
2022-09-20T16:44:30.757Z,0.88
2022-09-20T16:46:57.853Z,0.60
2022-09-20T16:49:25.263Z,0.80
2022-09-20T16:51:52.639Z,0.77
2022-09-20T16:54:19.876Z,1.02
2022-09-20T16:56:48.627Z,0.93
2022-09-20T16:59:19.171Z,0.98
2022-09-20T17:01:46.297Z,1.30
2022-09-20T17:04:14.502Z,1.10
2022-09-20T17:06:41.877Z,1.10
2022-09-20T17:09:09.726Z,1.40
2022-09-20T17:11:39.419Z,6.78
2022-09-20T17:14:06.908Z,2.22
2022-09-20T17:16:37.516Z,2.55
2022-09-20T17:19:06.508Z,4.82
2022-09-20T17:21:35.416Z,16.92
2022-09-20T17:24:05.264Z,15.23
2022-09-20T17:26:34.103Z,11.55
2022-09-20T17:29:02.662Z,6.53
2022-09-20T17:31:32.431Z,4.40
2022-09-20T17:34:01.541Z,4.20
2022-09-20T17:36:30.351Z,4.05
2022-09-20T17:39:03.635Z,4.07
2022-09-20T17:44:00.397Z,3.20
2022-09-20T17:46:29.370Z,3.08
2022-09-20T17:48:58.891Z,3.22
2022-09-20T17:51:28.824Z,2.88
2022-09-20T17:53:56.049Z,2.90
2022-09-20T17:56:23.965Z,2.88
2022-09-20T17:58:51.035Z,2.88
2022-09-20T18:01:19.260Z,2.55
2022-09-20T18:03:47.882Z,3.00
2022-09-20T18:06:16.923Z,2.78
2022-09-20T18:08:48.019Z,2.88
2022-09-20T18:11:15.802Z,2.78
2022-09-20T18:13:43.400Z,2.92
2022-09-20T18:16:11.886Z,3.13
2022-09-20T18:18:39.854Z,2.50
2022-09-20T18:21:12.196Z,2.78
2022-09-20T18:23:39.311Z,2.53
2022-09-20T18:26:09.535Z,3.00
2022-09-20T18:28:36.623Z,2.90
2022-09-20T18:31:04.798Z,2.80
2022-09-20T18:33:32.191Z,2.83
2022-09-20T18:36:03.186Z,2.90
2022-09-20T18:38:30.333Z,3.00
2022-09-20T18:40:57.956Z,2.83
2022-09-20T18:43:27.017Z,3.05
2022-09-20T18:45:54.198Z,3.05
2022-09-20T18:48:21.591Z,3.08
2022-09-20T18:50:59.253Z,3.40
2022-09-20T18:53:27.550Z,3.03
2022-09-20T18:55:55.053Z,2.95
2022-09-20T18:58:23.526Z,3.30
2022-09-20T19:01:07.008Z,3.70
2022-09-20T19:03:50.353Z,3.23
2022-09-20T19:06:21.179Z,3.45
2022-09-20T19:08:57.413Z,3.60
2022-09-20T19:11:30.713Z,3.70
2022-09-20T19:14:02.829Z,3.97
2022-09-20T19:16:34.077Z,3.53
2022-09-20T19:19:27.856Z,3.35
2022-09-20T19:22:02.270Z,3.47
2022-09-20T19:24:44.194Z,3.42
2022-09-20T19:27:13.164Z,3.47
2022-09-20T19:29:40.880Z,3.47
2022-09-20T19:32:15.910Z,3.20
2022-09-20T19:34:44.221Z,2.80
2022-09-20T19:37:21.673Z,2.85
2022-09-20T19:40:03.633Z,2.72
2022-09-20T19:42:41.006Z,2.55
2022-09-20T19:45:17.478Z,2.45
2022-09-20T19:47:52.604Z,3.10
2022-09-20T19:50:27.179Z,2.75
2022-09-20T19:52:55.086Z,2.80
2022-09-20T19:55:22.856Z,3.22
2022-09-20T19:57:50.510Z,3.28
2022-09-20T20:00:20.454Z,3.13
2022-09-20T20:02:49.897Z,3.38
2022-09-20T20:05:19.280Z,3.45
2022-09-20T20:07:52.512Z,3.38
2022-09-20T20:10:26.505Z,3.37
2022-09-20T20:15:38.678Z,2.58
2022-09-20T20:18:20.474Z,13.52
2022-09-20T20:20:49.661Z,3.08
2022-09-20T20:23:45.530Z,3.47
2022-09-20T20:26:19.018Z,3.42
2022-09-20T20:28:46.322Z,3.00
2022-09-20T20:31:13.475Z,3.10
2022-09-20T20:33:41.976Z,2.75
2022-09-20T20:36:09.810Z,2.85
2022-09-20T20:38:37.231Z,2.70
2022-09-20T20:41:06.128Z,2.97
2022-09-20T20:43:34.671Z,2.80
2022-09-20T20:46:02.219Z,3.13
2022-09-20T20:48:29.818Z,3.00
2022-09-20T20:51:05.998Z,2.50
2022-09-20T20:53:34.752Z,2.80
2022-09-20T20:56:03.552Z,2.53
2022-09-20T20:58:31.603Z,2.75
2022-09-20T21:01:10.458Z,2.50
2022-09-20T21:03:37.716Z,2.40
2022-09-20T21:06:07.411Z,2.40
2022-09-20T21:08:36.150Z,2.58
2022-09-20T21:11:05.752Z,2.65
2022-09-20T21:13:33.302Z,1.95
2022-09-20T21:16:05.312Z,2.55
2022-09-20T21:18:32.801Z,2.17
2022-09-20T21:21:00.181Z,3.00
2022-09-20T21:23:28.849Z,2.28
2022-09-20T21:26:04.459Z,2.20
2022-09-20T21:28:31.527Z,2.13
2022-09-20T21:31:01.614Z,2.03
2022-09-20T21:33:33.471Z,2.30
2022-09-20T21:36:01.058Z,2.28
2022-09-20T21:38:30.437Z,2.10
2022-09-20T21:41:05.332Z,1.90
2022-09-20T21:43:32.876Z,2.00
2022-09-20T21:46:00.042Z,2.25
2022-09-20T21:48:28.443Z,2.15
2022-09-20T21:51:02.155Z,2.67
2022-09-20T21:53:30.969Z,2.45
2022-09-20T21:55:58.864Z,1.80
2022-09-20T21:58:26.364Z,2.00
2022-09-20T22:00:57.944Z,2.22
2022-09-20T22:03:25.052Z,2.20
2022-09-20T22:05:52.130Z,1.83
2022-09-20T22:08:19.220Z,2.20
2022-09-20T22:10:56.524Z,2.10
2022-09-20T22:13:24.340Z,1.80
2022-09-20T22:15:51.525Z,1.80
2022-09-20T22:18:18.674Z,1.73
2022-09-20T22:20:45.778Z,2.13
2022-09-20T22:23:12.861Z,2.03
2022-09-20T22:25:39.918Z,1.77
2022-09-20T22:28:08.355Z,2.30
2022-09-20T22:30:35.486Z,2.03
2022-09-20T22:33:03.594Z,1.90
2022-09-20T22:35:30.710Z,2.00
2022-09-20T22:37:57.772Z,1.90
2022-09-20T22:40:24.939Z,1.80
2022-09-20T22:42:52.051Z,1.88
2022-09-20T22:45:20.472Z,2.17
2022-09-20T22:47:47.568Z,1.60
2022-09-20T22:50:14.983Z,1.60
2022-09-20T22:52:42.061Z,1.70
2022-09-20T22:55:09.599Z,2.00
2022-09-20T22:57:36.811Z,1.80
2022-09-20T23:00:04.545Z,1.60
2022-09-20T23:02:33.445Z,1.98
2022-09-20T23:05:00.566Z,1.63
2022-09-20T23:07:27.656Z,1.95
2022-09-20T23:09:54.730Z,1.90
2022-09-20T23:12:21.827Z,2.30
2022-09-20T23:14:48.901Z,1.70
2022-09-20T23:17:15.979Z,1.50
2022-09-20T23:19:44.535Z,1.58
2022-09-20T23:22:11.608Z,2.00
2022-09-20T23:24:38.687Z,1.60
2022-09-20T23:27:05.830Z,1.67
2022-09-20T23:29:32.944Z,1.48
2022-09-20T23:32:00.038Z,1.67
2022-09-20T23:34:27.183Z,1.60
2022-09-20T23:36:55.606Z,1.67
2022-09-20T23:39:22.777Z,1.60
2022-09-20T23:41:51.261Z,1.90
2022-09-20T23:44:19.063Z,1.67
2022-09-20T23:46:46.145Z,1.70
2022-09-20T23:49:13.253Z,1.50
2022-09-20T23:51:40.320Z,1.50
2022-09-20T23:54:08.825Z,1.58
2022-09-20T23:56:35.925Z,1.65
2022-09-20T23:59:03.043Z,1.67
